sensor_id;sensor_type;location;lat;lon;timestamp;P1;durP1;ratioP1;P2;durP2;ratioP2
57899;SDS011;60605;53.716;19.940;2023-08-06T00:03:12;5.50;;;5.00;;
57899;SDS011;60605;53.716;19.940;2023-08-06T00:08:16;11.00;;;5.60;;
57899;SDS011;60605;53.716;19.940;2023-08-06T00:13:20;7.70;;;5.40;;
57899;SDS011;60605;53.716;19.940;2023-08-06T00:18:23;8.80;;;5.60;;
57899;SDS011;60605;53.716;19.940;2023-08-06T00:23:26;5.20;;;4.60;;
57899;SDS011;60605;53.716;19.940;2023-08-06T00:28:30;7.60;;;5.90;;
57899;SDS011;60605;53.716;19.940;2023-08-06T00:33:33;6.60;;;5.40;;
57899;SDS011;60605;53.716;19.940;2023-08-06T00:38:36;6.60;;;5.30;;
57899;SDS011;60605;53.716;19.940;2023-08-06T00:43:40;6.80;;;5.00;;
57899;SDS011;60605;53.716;19.940;2023-08-06T00:48:43;7.80;;;5.70;;
57899;SDS011;60605;53.716;19.940;2023-08-06T00:53:46;6.40;;;5.20;;
57899;SDS011;60605;53.716;19.940;2023-08-06T00:58:51;6.10;;;4.50;;
57899;SDS011;60605;53.716;19.940;2023-08-06T01:03:55;14.40;;;5.20;;
57899;SDS011;60605;53.716;19.940;2023-08-06T01:09:01;10.80;;;5.10;;
57899;SDS011;60605;53.716;19.940;2023-08-06T01:14:15;7.80;;;4.80;;
57899;SDS011;60605;53.716;19.940;2023-08-06T01:19:26;7.80;;;4.40;;
57899;SDS011;60605;53.716;19.940;2023-08-06T01:24:29;3.50;;;3.20;;
57899;SDS011;60605;53.716;19.940;2023-08-06T01:29:41;3.90;;;3.50;;
57899;SDS011;60605;53.716;19.940;2023-08-06T01:34:51;3.70;;;3.20;;
57899;SDS011;60605;53.716;19.940;2023-08-06T01:39:57;3.50;;;3.20;;
57899;SDS011;60605;53.716;19.940;2023-08-06T01:45:01;5.40;;;3.40;;
57899;SDS011;60605;53.716;19.940;2023-08-06T01:50:04;7.80;;;4.20;;
57899;SDS011;60605;53.716;19.940;2023-08-06T01:55:08;7.70;;;4.80;;
57899;SDS011;60605;53.716;19.940;2023-08-06T02:00:11;3.90;;;3.50;;
57899;SDS011;60605;53.716;19.940;2023-08-06T02:05:16;3.90;;;2.50;;
57899;SDS011;60605;53.716;19.940;2023-08-06T02:10:19;3.00;;;2.70;;
57899;SDS011;60605;53.716;19.940;2023-08-06T02:15:23;3.80;;;2.30;;
57899;SDS011;60605;53.716;19.940;2023-08-06T02:20:26;2.70;;;2.50;;
57899;SDS011;60605;53.716;19.940;2023-08-06T02:25:29;2.50;;;2.30;;
57899;SDS011;60605;53.716;19.940;2023-08-06T02:30:33;2.70;;;2.50;;
57899;SDS011;60605;53.716;19.940;2023-08-06T02:35:37;2.30;;;2.20;;
57899;SDS011;60605;53.716;19.940;2023-08-06T02:40:46;2.90;;;2.20;;
57899;SDS011;60605;53.716;19.940;2023-08-06T02:45:50;2.90;;;2.30;;
57899;SDS011;60605;53.716;19.940;2023-08-06T02:50:56;2.50;;;2.30;;
57899;SDS011;60605;53.716;19.940;2023-08-06T02:56:01;2.30;;;2.10;;
57899;SDS011;60605;53.716;19.940;2023-08-06T03:01:06;2.10;;;2.00;;
57899;SDS011;60605;53.716;19.940;2023-08-06T03:06:10;2.10;;;2.00;;
57899;SDS011;60605;53.716;19.940;2023-08-06T03:11:13;2.10;;;2.00;;
57899;SDS011;60605;53.716;19.940;2023-08-06T03:16:16;2.50;;;2.30;;
57899;SDS011;60605;53.716;19.940;2023-08-06T03:21:20;2.10;;;2.00;;
57899;SDS011;60605;53.716;19.940;2023-08-06T03:26:23;2.10;;;1.90;;
57899;SDS011;60605;53.716;19.940;2023-08-06T03:31:27;2.10;;;1.90;;
57899;SDS011;60605;53.716;19.940;2023-08-06T03:36:31;2.10;;;1.90;;
57899;SDS011;60605;53.716;19.940;2023-08-06T03:41:35;2.10;;;2.00;;
57899;SDS011;60605;53.716;19.940;2023-08-06T03:46:39;5.70;;;5.20;;
57899;SDS011;60605;53.716;19.940;2023-08-06T03:51:43;2.00;;;1.90;;
57899;SDS011;60605;53.716;19.940;2023-08-06T03:56:47;1.80;;;1.70;;
57899;SDS011;60605;53.716;19.940;2023-08-06T04:01:50;1.60;;;1.50;;
57899;SDS011;60605;53.716;19.940;2023-08-06T04:06:54;1.50;;;1.40;;
57899;SDS011;60605;53.716;19.940;2023-08-06T04:11:57;1.70;;;1.60;;
57899;SDS011;60605;53.716;19.940;2023-08-06T04:17:01;1.30;;;1.20;;
57899;SDS011;60605;53.716;19.940;2023-08-06T04:22:05;1.30;;;1.30;;
57899;SDS011;60605;53.716;19.940;2023-08-06T04:27:10;1.10;;;1.10;;
57899;SDS011;60605;53.716;19.940;2023-08-06T04:32:13;1.00;;;1.00;;
57899;SDS011;60605;53.716;19.940;2023-08-06T04:37:17;1.70;;;1.20;;
57899;SDS011;60605;53.716;19.940;2023-08-06T04:42:20;1.00;;;1.00;;
57899;SDS011;60605;53.716;19.940;2023-08-06T04:47:24;1.20;;;1.20;;
57899;SDS011;60605;53.716;19.940;2023-08-06T04:52:28;1.30;;;1.20;;
57899;SDS011;60605;53.716;19.940;2023-08-06T04:57:32;2.00;;;1.70;;
57899;SDS011;60605;53.716;19.940;2023-08-06T05:02:36;3.00;;;1.80;;
57899;SDS011;60605;53.716;19.940;2023-08-06T05:07:41;2.00;;;1.90;;
57899;SDS011;60605;53.716;19.940;2023-08-06T05:12:45;2.20;;;2.00;;
57899;SDS011;60605;53.716;19.940;2023-08-06T05:17:48;2.80;;;2.40;;
57899;SDS011;60605;53.716;19.940;2023-08-06T05:22:51;3.50;;;3.20;;
57899;SDS011;60605;53.716;19.940;2023-08-06T05:27:55;5.40;;;3.40;;
57899;SDS011;60605;53.716;19.940;2023-08-06T05:32:58;3.40;;;3.10;;
57899;SDS011;60605;53.716;19.940;2023-08-06T05:38:02;4.30;;;3.70;;
57899;SDS011;60605;53.716;19.940;2023-08-06T05:43:05;6.00;;;3.90;;
57899;SDS011;60605;53.716;19.940;2023-08-06T05:48:09;5.60;;;4.00;;
57899;SDS011;60605;53.716;19.940;2023-08-06T05:53:12;5.00;;;4.50;;
57899;SDS011;60605;53.716;19.940;2023-08-06T05:58:16;5.10;;;4.50;;
57899;SDS011;60605;53.716;19.940;2023-08-06T06:03:19;6.10;;;4.90;;
57899;SDS011;60605;53.716;19.940;2023-08-06T06:08:23;6.70;;;4.80;;
57899;SDS011;60605;53.716;19.940;2023-08-06T06:13:26;6.00;;;5.20;;
57899;SDS011;60605;53.716;19.940;2023-08-06T06:18:29;6.50;;;4.70;;
57899;SDS011;60605;53.716;19.940;2023-08-06T06:23:32;7.60;;;5.20;;
57899;SDS011;60605;53.716;19.940;2023-08-06T06:28:36;6.60;;;5.10;;
57899;SDS011;60605;53.716;19.940;2023-08-06T06:33:39;6.20;;;5.60;;
57899;SDS011;60605;53.716;19.940;2023-08-06T06:38:43;6.40;;;5.50;;
57899;SDS011;60605;53.716;19.940;2023-08-06T06:43:46;6.80;;;6.10;;
57899;SDS011;60605;53.716;19.940;2023-08-06T06:48:49;29.20;;;23.90;;
57899;SDS011;60605;53.716;19.940;2023-08-06T06:53:53;7.10;;;6.20;;
57899;SDS011;60605;53.716;19.940;2023-08-06T06:58:56;7.70;;;6.30;;
57899;SDS011;60605;53.716;19.940;2023-08-06T07:03:59;6.90;;;6.20;;
57899;SDS011;60605;53.716;19.940;2023-08-06T07:09:07;8.90;;;6.40;;
57899;SDS011;60605;53.716;19.940;2023-08-06T07:14:10;8.60;;;6.30;;
57899;SDS011;60605;53.716;19.940;2023-08-06T07:19:14;10.20;;;8.10;;
57899;SDS011;60605;53.716;19.940;2023-08-06T07:24:17;8.50;;;7.60;;
57899;SDS011;60605;53.716;19.940;2023-08-06T07:29:20;8.90;;;7.60;;
57899;SDS011;60605;53.716;19.940;2023-08-06T07:34:25;10.10;;;8.30;;
57899;SDS011;60605;53.716;19.940;2023-08-06T07:39:29;9.60;;;8.10;;
57899;SDS011;60605;53.716;19.940;2023-08-06T07:44:33;9.90;;;8.90;;
57899;SDS011;60605;53.716;19.940;2023-08-06T07:49:36;10.20;;;9.10;;
57899;SDS011;60605;53.716;19.940;2023-08-06T07:54:39;9.50;;;8.60;;
57899;SDS011;60605;53.716;19.940;2023-08-06T07:59:43;10.00;;;9.10;;
57899;SDS011;60605;53.716;19.940;2023-08-06T08:04:46;10.20;;;8.50;;
57899;SDS011;60605;53.716;19.940;2023-08-06T08:09:53;9.70;;;8.80;;
57899;SDS011;60605;53.716;19.940;2023-08-06T08:14:56;10.70;;;9.60;;
57899;SDS011;60605;53.716;19.940;2023-08-06T08:20:00;14.10;;;11.20;;
57899;SDS011;60605;53.716;19.940;2023-08-06T08:25:03;10.50;;;9.50;;
57899;SDS011;60605;53.716;19.940;2023-08-06T08:30:08;10.60;;;9.40;;
57899;SDS011;60605;53.716;19.940;2023-08-06T08:35:11;12.90;;;8.70;;
57899;SDS011;60605;53.716;19.940;2023-08-06T08:40:15;8.70;;;7.90;;
57899;SDS011;60605;53.716;19.940;2023-08-06T08:45:19;8.40;;;7.60;;
57899;SDS011;60605;53.716;19.940;2023-08-06T08:50:24;8.40;;;7.60;;
57899;SDS011;60605;53.716;19.940;2023-08-06T08:55:27;8.00;;;7.20;;
57899;SDS011;60605;53.716;19.940;2023-08-06T09:00:31;8.90;;;8.00;;
57899;SDS011;60605;53.716;19.940;2023-08-06T09:05:36;10.00;;;8.40;;
57899;SDS011;60605;53.716;19.940;2023-08-06T09:10:42;9.40;;;8.60;;
57899;SDS011;60605;53.716;19.940;2023-08-06T09:15:47;11.90;;;8.50;;
57899;SDS011;60605;53.716;19.940;2023-08-06T09:20:50;9.80;;;8.40;;
57899;SDS011;60605;53.716;19.940;2023-08-06T09:25:54;11.70;;;9.00;;
57899;SDS011;60605;53.716;19.940;2023-08-06T09:30:57;9.30;;;8.40;;
57899;SDS011;60605;53.716;19.940;2023-08-06T09:36:10;8.80;;;7.90;;
57899;SDS011;60605;53.716;19.940;2023-08-06T09:41:25;8.30;;;7.60;;
57899;SDS011;60605;53.716;19.940;2023-08-06T09:46:31;9.50;;;7.20;;
57899;SDS011;60605;53.716;19.940;2023-08-06T09:51:36;8.50;;;7.80;;
57899;SDS011;60605;53.716;19.940;2023-08-06T09:56:46;8.00;;;7.10;;
57899;SDS011;60605;53.716;19.940;2023-08-06T10:02:00;8.60;;;7.50;;
57899;SDS011;60605;53.716;19.940;2023-08-06T10:07:07;10.20;;;7.50;;
57899;SDS011;60605;53.716;19.940;2023-08-06T10:12:19;10.80;;;7.20;;
57899;SDS011;60605;53.716;19.940;2023-08-06T10:17:31;8.70;;;7.20;;
57899;SDS011;60605;53.716;19.940;2023-08-06T10:28:16;8.00;;;7.20;;
57899;SDS011;60605;53.716;19.940;2023-08-06T10:33:22;8.70;;;7.30;;
57899;SDS011;60605;53.716;19.940;2023-08-06T10:38:25;9.70;;;7.30;;
57899;SDS011;60605;53.716;19.940;2023-08-06T10:48:39;10.90;;;6.90;;
57899;SDS011;60605;53.716;19.940;2023-08-06T10:53:44;10.40;;;7.30;;
57899;SDS011;60605;53.716;19.940;2023-08-06T10:58:50;8.60;;;7.00;;
57899;SDS011;60605;53.716;19.940;2023-08-06T11:03:54;7.90;;;6.80;;
57899;SDS011;60605;53.716;19.940;2023-08-06T11:08:58;10.40;;;6.70;;
57899;SDS011;60605;53.716;19.940;2023-08-06T11:14:01;9.50;;;6.60;;
57899;SDS011;60605;53.716;19.940;2023-08-06T11:19:07;8.00;;;6.70;;
57899;SDS011;60605;53.716;19.940;2023-08-06T11:24:11;12.20;;;7.20;;
57899;SDS011;60605;53.716;19.940;2023-08-06T11:29:15;10.70;;;6.80;;
57899;SDS011;60605;53.716;19.940;2023-08-06T11:34:20;8.20;;;6.80;;
57899;SDS011;60605;53.716;19.940;2023-08-06T11:39:26;7.60;;;6.50;;
57899;SDS011;60605;53.716;19.940;2023-08-06T11:44:50;10.80;;;6.60;;
57899;SDS011;60605;53.716;19.940;2023-08-06T11:49:57;7.60;;;6.30;;
57899;SDS011;60605;53.716;19.940;2023-08-06T11:55:01;9.30;;;6.40;;
57899;SDS011;60605;53.716;19.940;2023-08-06T12:00:11;7.00;;;6.30;;
57899;SDS011;60605;53.716;19.940;2023-08-06T12:05:21;8.40;;;5.80;;
57899;SDS011;60605;53.716;19.940;2023-08-06T12:10:30;9.50;;;5.90;;
57899;SDS011;60605;53.716;19.940;2023-08-06T12:15:34;9.10;;;6.10;;
57899;SDS011;60605;53.716;19.940;2023-08-06T12:20:38;10.30;;;6.40;;
57899;SDS011;60605;53.716;19.940;2023-08-06T12:25:41;11.20;;;6.70;;
57899;SDS011;60605;53.716;19.940;2023-08-06T12:30:45;11.10;;;5.90;;
57899;SDS011;60605;53.716;19.940;2023-08-06T12:35:53;6.60;;;5.60;;
57899;SDS011;60605;53.716;19.940;2023-08-06T12:40:58;7.10;;;5.70;;
57899;SDS011;60605;53.716;19.940;2023-08-06T12:46:02;8.50;;;5.90;;
57899;SDS011;60605;53.716;19.940;2023-08-06T12:51:06;7.50;;;5.80;;
57899;SDS011;60605;53.716;19.940;2023-08-06T12:56:13;6.00;;;5.40;;
57899;SDS011;60605;53.716;19.940;2023-08-06T13:01:18;7.80;;;5.70;;
57899;SDS011;60605;53.716;19.940;2023-08-06T13:06:22;7.20;;;5.50;;
57899;SDS011;60605;53.716;19.940;2023-08-06T13:11:26;6.10;;;5.50;;
57899;SDS011;60605;53.716;19.940;2023-08-06T13:16:31;7.40;;;5.40;;
57899;SDS011;60605;53.716;19.940;2023-08-06T13:21:57;7.60;;;5.50;;
57899;SDS011;60605;53.716;19.940;2023-08-06T13:27:12;7.80;;;5.20;;
57899;SDS011;60605;53.716;19.940;2023-08-06T13:32:17;9.60;;;4.80;;
57899;SDS011;60605;53.716;19.940;2023-08-06T13:37:21;5.10;;;4.20;;
57899;SDS011;60605;53.716;19.940;2023-08-06T13:42:24;7.20;;;4.30;;
57899;SDS011;60605;53.716;19.940;2023-08-06T13:47:27;4.60;;;4.20;;
57899;SDS011;60605;53.716;19.940;2023-08-06T13:52:31;6.20;;;4.40;;
57899;SDS011;60605;53.716;19.940;2023-08-06T13:57:34;6.80;;;4.30;;
57899;SDS011;60605;53.716;19.940;2023-08-06T14:02:38;7.80;;;4.40;;
57899;SDS011;60605;53.716;19.940;2023-08-06T14:07:42;5.10;;;3.90;;
57899;SDS011;60605;53.716;19.940;2023-08-06T14:12:45;6.20;;;3.70;;
57899;SDS011;60605;53.716;19.940;2023-08-06T14:18:03;9.70;;;3.80;;
57899;SDS011;60605;53.716;19.940;2023-08-06T14:23:06;5.70;;;4.40;;
57899;SDS011;60605;53.716;19.940;2023-08-06T14:28:10;6.90;;;4.10;;
57899;SDS011;60605;53.716;19.940;2023-08-06T14:33:13;5.70;;;4.60;;
57899;SDS011;60605;53.716;19.940;2023-08-06T14:38:32;5.20;;;4.30;;
57899;SDS011;60605;53.716;19.940;2023-08-06T14:44:00;6.20;;;4.40;;
57899;SDS011;60605;53.716;19.940;2023-08-06T14:49:03;4.60;;;4.10;;
57899;SDS011;60605;53.716;19.940;2023-08-06T14:54:07;4.90;;;4.40;;
57899;SDS011;60605;53.716;19.940;2023-08-06T14:59:10;8.40;;;4.50;;
57899;SDS011;60605;53.716;19.940;2023-08-06T15:04:13;4.90;;;4.50;;
57899;SDS011;60605;53.716;19.940;2023-08-06T15:09:18;5.10;;;4.60;;
57899;SDS011;60605;53.716;19.940;2023-08-06T15:14:23;10.50;;;4.80;;
57899;SDS011;60605;53.716;19.940;2023-08-06T15:19:26;9.60;;;4.80;;
57899;SDS011;60605;53.716;19.940;2023-08-06T15:24:30;6.90;;;4.80;;
57899;SDS011;60605;53.716;19.940;2023-08-06T15:29:33;5.80;;;5.00;;
57899;SDS011;60605;53.716;19.940;2023-08-06T15:34:37;9.30;;;4.70;;
57899;SDS011;60605;53.716;19.940;2023-08-06T15:39:40;5.50;;;5.00;;
57899;SDS011;60605;53.716;19.940;2023-08-06T15:44:47;5.10;;;4.40;;
57899;SDS011;60605;53.716;19.940;2023-08-06T15:49:50;9.50;;;5.40;;
57899;SDS011;60605;53.716;19.940;2023-08-06T15:54:54;7.70;;;5.00;;
57899;SDS011;60605;53.716;19.940;2023-08-06T15:59:58;5.70;;;4.20;;
57899;SDS011;60605;53.716;19.940;2023-08-06T16:05:02;6.10;;;4.40;;
57899;SDS011;60605;53.716;19.940;2023-08-06T16:10:07;4.60;;;3.60;;
57899;SDS011;60605;53.716;19.940;2023-08-06T16:15:11;4.80;;;4.30;;
57899;SDS011;60605;53.716;19.940;2023-08-06T16:20:16;6.50;;;4.70;;
57899;SDS011;60605;53.716;19.940;2023-08-06T16:25:21;6.10;;;5.60;;
57899;SDS011;60605;53.716;19.940;2023-08-06T16:30:24;6.10;;;5.50;;
57899;SDS011;60605;53.716;19.940;2023-08-06T16:35:28;6.00;;;5.40;;
57899;SDS011;60605;53.716;19.940;2023-08-06T16:40:32;6.60;;;6.00;;
57899;SDS011;60605;53.716;19.940;2023-08-06T16:45:36;6.50;;;5.90;;
57899;SDS011;60605;53.716;19.940;2023-08-06T16:50:41;7.30;;;6.60;;
57899;SDS011;60605;53.716;19.940;2023-08-06T16:55:44;6.10;;;5.60;;
57899;SDS011;60605;53.716;19.940;2023-08-06T17:00:48;5.90;;;5.40;;
57899;SDS011;60605;53.716;19.940;2023-08-06T17:05:53;6.70;;;5.70;;
57899;SDS011;60605;53.716;19.940;2023-08-06T17:10:57;6.30;;;5.60;;
57899;SDS011;60605;53.716;19.940;2023-08-06T17:16:08;5.90;;;5.20;;
57899;SDS011;60605;53.716;19.940;2023-08-06T17:21:12;6.40;;;4.50;;
57899;SDS011;60605;53.716;19.940;2023-08-06T17:26:18;4.70;;;4.30;;
57899;SDS011;60605;53.716;19.940;2023-08-06T17:31:30;4.50;;;4.10;;
57899;SDS011;60605;53.716;19.940;2023-08-06T17:36:48;4.80;;;3.70;;
57899;SDS011;60605;53.716;19.940;2023-08-06T17:41:53;5.00;;;3.90;;
57899;SDS011;60605;53.716;19.940;2023-08-06T17:46:58;4.00;;;3.60;;
57899;SDS011;60605;53.716;19.940;2023-08-06T17:52:02;4.00;;;3.70;;
57899;SDS011;60605;53.716;19.940;2023-08-06T17:57:08;4.60;;;4.10;;
57899;SDS011;60605;53.716;19.940;2023-08-06T18:02:12;5.80;;;3.80;;
57899;SDS011;60605;53.716;19.940;2023-08-06T18:07:17;4.40;;;4.00;;
57899;SDS011;60605;53.716;19.940;2023-08-06T18:12:25;5.30;;;4.40;;
57899;SDS011;60605;53.716;19.940;2023-08-06T18:17:35;6.00;;;4.30;;
57899;SDS011;60605;53.716;19.940;2023-08-06T18:22:41;5.00;;;4.10;;
57899;SDS011;60605;53.716;19.940;2023-08-06T18:27:47;6.30;;;4.00;;
57899;SDS011;60605;53.716;19.940;2023-08-06T18:32:54;4.20;;;3.80;;
57899;SDS011;60605;53.716;19.940;2023-08-06T18:38:03;4.80;;;3.80;;
57899;SDS011;60605;53.716;19.940;2023-08-06T18:43:09;4.20;;;3.80;;
57899;SDS011;60605;53.716;19.940;2023-08-06T18:48:16;5.00;;;3.90;;
57899;SDS011;60605;53.716;19.940;2023-08-06T18:53:20;4.30;;;3.90;;
57899;SDS011;60605;53.716;19.940;2023-08-06T18:58:36;4.40;;;4.00;;
57899;SDS011;60605;53.716;19.940;2023-08-06T19:03:46;4.30;;;3.90;;
57899;SDS011;60605;53.716;19.940;2023-08-06T19:08:51;4.10;;;3.70;;
57899;SDS011;60605;53.716;19.940;2023-08-06T19:14:07;3.40;;;3.10;;
57899;SDS011;60605;53.716;19.940;2023-08-06T19:19:21;4.20;;;3.30;;
57899;SDS011;60605;53.716;19.940;2023-08-06T19:24:27;3.50;;;3.20;;
57899;SDS011;60605;53.716;19.940;2023-08-06T19:29:34;2.80;;;2.60;;
57899;SDS011;60605;53.716;19.940;2023-08-06T19:34:41;3.50;;;2.40;;
57899;SDS011;60605;53.716;19.940;2023-08-06T19:39:49;3.50;;;2.30;;
57899;SDS011;60605;53.716;19.940;2023-08-06T19:44:58;3.70;;;2.60;;
57899;SDS011;60605;53.716;19.940;2023-08-06T19:50:10;2.40;;;2.00;;
57899;SDS011;60605;53.716;19.940;2023-08-06T19:55:14;2.00;;;1.80;;
57899;SDS011;60605;53.716;19.940;2023-08-06T20:00:27;2.20;;;2.00;;
57899;SDS011;60605;53.716;19.940;2023-08-06T20:05:40;1.90;;;1.70;;
57899;SDS011;60605;53.716;19.940;2023-08-06T20:10:45;2.30;;;1.70;;
57899;SDS011;60605;53.716;19.940;2023-08-06T20:15:57;1.80;;;1.70;;
57899;SDS011;60605;53.716;19.940;2023-08-06T20:21:01;1.40;;;1.40;;
57899;SDS011;60605;53.716;19.940;2023-08-06T20:26:06;2.10;;;1.50;;
57899;SDS011;60605;53.716;19.940;2023-08-06T20:31:13;1.80;;;1.30;;
57899;SDS011;60605;53.716;19.940;2023-08-06T20:36:20;1.50;;;1.10;;
57899;SDS011;60605;53.716;19.940;2023-08-06T20:41:24;1.40;;;1.40;;
57899;SDS011;60605;53.716;19.940;2023-08-06T20:46:29;1.50;;;1.40;;
57899;SDS011;60605;53.716;19.940;2023-08-06T20:51:39;1.70;;;1.60;;
57899;SDS011;60605;53.716;19.940;2023-08-06T20:56:45;1.60;;;1.50;;
57899;SDS011;60605;53.716;19.940;2023-08-06T21:01:54;1.80;;;1.40;;
57899;SDS011;60605;53.716;19.940;2023-08-06T21:07:01;1.80;;;1.70;;
57899;SDS011;60605;53.716;19.940;2023-08-06T21:12:04;1.60;;;1.50;;
57899;SDS011;60605;53.716;19.940;2023-08-06T21:17:11;1.40;;;1.30;;
57899;SDS011;60605;53.716;19.940;2023-08-06T21:22:18;2.30;;;1.70;;
57899;SDS011;60605;53.716;19.940;2023-08-06T21:27:22;1.40;;;1.40;;
57899;SDS011;60605;53.716;19.940;2023-08-06T21:32:28;1.50;;;1.50;;
57899;SDS011;60605;53.716;19.940;2023-08-06T21:37:37;1.50;;;1.40;;
57899;SDS011;60605;53.716;19.940;2023-08-06T21:42:52;2.20;;;1.40;;
57899;SDS011;60605;53.716;19.940;2023-08-06T21:48:04;1.50;;;1.30;;
57899;SDS011;60605;53.716;19.940;2023-08-06T21:53:10;1.30;;;1.30;;
57899;SDS011;60605;53.716;19.940;2023-08-06T21:58:19;1.20;;;1.20;;
57899;SDS011;60605;53.716;19.940;2023-08-06T22:03:37;2.00;;;1.40;;
57899;SDS011;60605;53.716;19.940;2023-08-06T22:08:48;1.30;;;1.30;;
57899;SDS011;60605;53.716;19.940;2023-08-06T22:14:01;1.40;;;1.40;;
57899;SDS011;60605;53.716;19.940;2023-08-06T22:19:11;2.10;;;1.90;;
57899;SDS011;60605;53.716;19.940;2023-08-06T22:24:17;2.00;;;1.90;;
57899;SDS011;60605;53.716;19.940;2023-08-06T22:29:22;2.40;;;2.20;;
57899;SDS011;60605;53.716;19.940;2023-08-06T22:34:29;2.80;;;2.20;;
57899;SDS011;60605;53.716;19.940;2023-08-06T22:39:32;3.10;;;2.90;;
57899;SDS011;60605;53.716;19.940;2023-08-06T22:44:36;2.40;;;2.30;;
57899;SDS011;60605;53.716;19.940;2023-08-06T22:49:44;3.00;;;2.80;;
57899;SDS011;60605;53.716;19.940;2023-08-06T22:54:51;2.70;;;2.50;;
57899;SDS011;60605;53.716;19.940;2023-08-06T23:00:16;3.10;;;2.90;;
57899;SDS011;60605;53.716;19.940;2023-08-06T23:05:23;2.90;;;2.70;;
57899;SDS011;60605;53.716;19.940;2023-08-06T23:10:30;5.10;;;3.70;;
57899;SDS011;60605;53.716;19.940;2023-08-06T23:15:36;3.70;;;3.40;;
57899;SDS011;60605;53.716;19.940;2023-08-06T23:20:42;3.00;;;2.40;;
57899;SDS011;60605;53.716;19.940;2023-08-06T23:25:51;2.30;;;2.10;;
57899;SDS011;60605;53.716;19.940;2023-08-06T23:30:54;2.70;;;2.50;;
57899;SDS011;60605;53.716;19.940;2023-08-06T23:35:58;3.80;;;3.20;;
57899;SDS011;60605;53.716;19.940;2023-08-06T23:41:01;3.20;;;2.90;;
57899;SDS011;60605;53.716;19.940;2023-08-06T23:46:05;2.90;;;2.10;;
57899;SDS011;60605;53.716;19.940;2023-08-06T23:51:08;1.70;;;1.60;;
57899;SDS011;60605;53.716;19.940;2023-08-06T23:56:11;1.70;;;1.50;;
